This is the latest recevied weather packets stored in our database for station/object EA5BZ. If no packets are shown the sender has not sent any weather packets the latest 10 day(s).
| Time | Temp. | Humidity | Pressure | Rain* | Wind** | Luminosity | Snow |
|---|---|---|---|---|---|---|---|
| 1777397417 | 20° C | 72% | 1010.3 hPa | 0 mm | - | - | - |
| 1777396237 | 20° C | 71% | 1010.1 hPa | 0 mm | - | - | - |
| 1777395917 | 20° C | 71% | 1010 hPa | 0 mm | - | - | - |
| 1777395617 | 20° C | 70% | 1010 hPa | 0 mm | - | - | - |
| 1777394717 | 20.56° C | 68% | 1009.9 hPa | 0 mm | - | - | - |
| 1777394117 | 21.11° C | 67% | 1009.9 hPa | 0 mm | - | - | - |
| 1777389917 | 22.22° C | 60% | 1010.2 hPa | 0 mm | - | - | - |
| 1777388417 | 21.11° C | 61% | 1010.4 hPa | 0 mm | - | - | - |
| 1777387517 | 21.11° C | 62% | 1010.5 hPa | 0 mm | - | - | - |
| 1777386917 | 20.56° C | 62% | 1010.6 hPa | 0 mm | - | - | - |
| 1777385716 | 21.67° C | 59% | 1011.1 hPa | 0 mm | - | - | - |
| 1777384817 | 22.22° C | 58% | 1011.3 hPa | 0 mm | - | - | - |
| 1777384216 | 21.67° C | 59% | 1011.5 hPa | 0 mm | - | - | - |
| 1777383337 | 21.11° C | 61% | 1011.6 hPa | 0 mm | - | - | - |
| 1777382716 | 20.56° C | 63% | 1011.6 hPa | 0 mm | - | - | - |
| 1777380316 | 20° C | 68% | 1012.5 hPa | 0 mm | - | - | - |
| 1777379416 | 19.44° C | 71% | 1012.9 hPa | 0 mm | - | - | - |
| 1777378537 | 18.89° C | 71% | 1013.4 hPa | 0 mm | - | - | - |
| 1777376756 | 17.78° C | 74% | 1012.8 hPa | 0 mm | - | - | - |
| 1777376136 | 18.33° C | 72% | 1012.9 hPa | 0 mm | - | - | - |
| 1777375216 | 18.33° C | 67% | 1012.8 hPa | 0 mm | - | - | - |
| 1777373116 | 18.33° C | 64% | 1014.6 hPa | 0 mm | - | - | - |
| 1777372516 | 18.33° C | 70% | 1015.1 hPa | 0 mm | - | - | - |
| 1777370416 | 19.44° C | 61% | 1015.5 hPa | 0 mm | - | - | - |
| 1777368336 | 19.44° C | 54% | 1015 hPa | 0 mm | - | - | - |
* Rain latest hour (hover to see other rain measurements)
** Current wind speed in m/s (hover to see current wind gust speed)